Terminal Aerodrome Forecast
Issued by NWS

Home | Current Version | Previous Version | Text Only | Print | Product List | Glossary On
Versions: 1 2 3 4 5 6 7 8 9 10 11 12 13 14 15 16 17 18 19 20 21 22 23 24 25 26 27 28
000
FTUS42 KCAE 260500
TAFOGB
TAF
KOGB 260536Z 2606/2706 19004KT P6SM FEW050 BKN120
     FM261100 24006KT P6SM VCSH BKN035 BKN120
     FM261500 27012G20KT P6SM SCT035 BKN120
     FM261800 29015G25KT P6SM BKN120
     FM270200 30011G17KT P6SM SCT150=

USA.gov is the U.S. government's official web portal to all federal, state and local government web resources and services.